Time,TemperatureF,DewpointF,PressureIn,WindDirection,WindDirectionDegrees,WindSpeedMPH,WindSpeedGustMPH,Humidity,HourlyPrecipIn,Conditions,Clouds,dailyrainin,SoftwareType,DateUTC
2013-02-05 00:04:00,29.8,6.8,29.29,West,274,10.5,10.5,37,0.00,,---,0.00,VWS V14.01,2013-02-05 07:04:00,
2013-02-05 00:10:00,30.9,8.3,29.29,WSW,243,4.9,4.9,38,0.00,,---,0.00,VWS V14.01,2013-02-05 07:10:00,
2013-02-05 00:16:00,30.2,7.1,29.29,West,269,5.4,5.4,37,0.00,,---,0.00,VWS V14.01,2013-02-05 07:16:00,
2013-02-05 00:21:00,29.7,6.6,29.29,WSW,253,5.8,5.8,37,0.00,,---,0.00,VWS V14.01,2013-02-05 07:21:00,
2013-02-05 00:26:00,29.5,6.4,29.29,WSW,252,5.4,5.4,37,0.00,,---,0.00,VWS V14.01,2013-02-05 07:26:00,
2013-02-05 00:31:00,29.1,6.7,29.29,WSW,244,4.0,4.0,38,0.00,,---,0.00,VWS V14.01,2013-02-05 07:31:00,
2013-02-05 00:37:00,28.9,6.5,29.29,WSW,244,2.7,3.1,38,0.00,,---,0.00,VWS V14.01,2013-02-05 07:37:00,
2013-02-05 00:43:00,28.6,6.2,29.29,WSW,244,3.6,3.6,38,0.00,,---,0.00,VWS V14.01,2013-02-05 07:43:00,
2013-02-05 00:48:00,28.6,6.2,29.29,WSW,257,4.0,4.9,38,0.00,,---,0.00,VWS V14.01,2013-02-05 07:48:00,
2013-02-05 00:54:00,28.6,6.2,29.29,West,271,6.7,6.7,38,0.00,,---,0.00,VWS V14.01,2013-02-05 07:54:00,
2013-02-05 00:59:00,28.6,6.2,29.29,West,270,7.6,7.6,38,0.00,,---,0.00,VWS V14.01,2013-02-05 07:59:00,
2013-02-05 01:05:00,29.1,7.8,29.26,West,277,7.6,7.6,40,0.00,,---,0.00,VWS V14.01,2013-02-05 08:05:00,
2013-02-05 01:11:00,29.8,9.0,29.26,West,272,5.8,5.8,41,0.00,,---,0.00,VWS V14.01,2013-02-05 08:11:00,
2013-02-05 01:16:00,29.8,9.0,29.26,West,266,6.7,6.7,41,0.00,,---,0.00,VWS V14.01,2013-02-05 08:16:00,
2013-02-05 01:22:00,30.2,9.4,29.26,West,274,6.3,7.2,41,0.00,,---,0.00,VWS V14.01,2013-02-05 08:22:00,
2013-02-05 01:27:00,30.2,9.4,29.26,West,277,7.6,7.6,41,0.00,,---,0.00,VWS V14.01,2013-02-05 08:27:00,
2013-02-05 01:33:00,30.4,9.0,29.26,West,277,7.6,7.6,40,0.00,,---,0.00,VWS V14.01,2013-02-05 08:33:00,
2013-02-05 01:38:00,30.2,8.8,29.26,West,277,8.7,10.5,40,0.00,,---,0.00,VWS V14.01,2013-02-05 08:38:00,
2013-02-05 01:43:00,30.2,8.8,29.29,West,278,11.9,11.9,40,0.00,,---,0.00,VWS V14.01,2013-02-05 08:43:00,
2013-02-05 01:49:00,30.4,9.0,29.29,West,278,11.9,11.9,40,0.00,,---,0.00,VWS V14.01,2013-02-05 08:49:00,
2013-02-05 01:54:00,30.4,9.0,29.29,WNW,285,11.0,11.0,40,0.00,,---,0.00,VWS V14.01,2013-02-05 08:54:00,
2013-02-05 02:00:00,30.6,9.1,29.29,WNW,283,11.0,11.0,40,0.00,,---,0.00,VWS V14.01,2013-02-05 09:00:00,
2013-02-05 02:05:00,30.7,9.3,29.29,West,280,10.1,10.1,40,0.00,,---,0.00,VWS V14.01,2013-02-05 09:05:00,
2013-02-05 02:10:00,31.1,9.6,29.29,West,279,11.0,11.0,40,0.00,,---,0.00,VWS V14.01,2013-02-05 09:10:00,
2013-02-05 02:15:00,32.5,10.9,29.29,West,277,11.9,11.9,40,0.00,,---,0.00,VWS V14.01,2013-02-05 09:15:00,
2013-02-05 02:21:00,32.5,10.9,29.29,West,273,10.5,13.2,40,0.00,,---,0.00,VWS V14.01,2013-02-05 09:21:00,
2013-02-05 02:26:00,32.4,10.2,29.29,West,279,12.8,13.2,39,0.00,,---,0.00,VWS V14.01,2013-02-05 09:26:00,
2013-02-05 02:32:00,32.2,10.0,29.29,West,280,12.8,13.2,39,0.00,,---,0.00,VWS V14.01,2013-02-05 09:32:00,
2013-02-05 02:37:00,32.2,10.6,29.29,WNW,285,11.0,11.0,40,0.00,,---,0.00,VWS V14.01,2013-02-05 09:37:00,
2013-02-05 02:43:00,32.2,10.0,29.29,West,280,12.8,12.8,39,0.00,,---,0.00,VWS V14.01,2013-02-05 09:43:00,
2013-02-05 02:49:00,32.0,10.4,29.29,WNW,288,11.0,12.8,40,0.00,,---,0.00,VWS V14.01,2013-02-05 09:49:00,
2013-02-05 02:54:00,32.0,10.4,29.29,WNW,290,11.0,11.0,40,0.00,,---,0.00,VWS V14.01,2013-02-05 09:54:00,
2013-02-05 02:59:00,32.2,10.6,29.29,WNW,283,13.2,13.2,40,0.00,,---,0.00,VWS V14.01,2013-02-05 09:59:00,
2013-02-05 03:04:00,32.5,10.9,29.29,WNW,285,11.0,11.4,40,0.00,,---,0.00,VWS V14.01,2013-02-05 10:04:00,
2013-02-05 03:10:00,32.9,11.2,29.29,WNW,300,10.5,10.5,40,0.00,,---,0.00,VWS V14.01,2013-02-05 10:10:00,
2013-02-05 03:15:00,33.1,11.4,29.29,West,274,12.8,12.8,40,0.00,,---,0.00,VWS V14.01,2013-02-05 10:15:00,
2013-02-05 03:20:00,33.3,11.6,29.29,West,279,8.7,12.3,40,0.00,,---,0.00,VWS V14.01,2013-02-05 10:20:00,
2013-02-05 03:26:00,33.1,10.8,29.29,West,271,12.3,12.3,39,0.00,,---,0.00,VWS V14.01,2013-02-05 10:26:00,
2013-02-05 03:32:00,32.0,9.9,29.29,West,266,11.9,11.9,39,0.00,,---,0.00,VWS V14.01,2013-02-05 10:32:00,
2013-02-05 03:37:00,31.3,9.2,29.29,West,274,11.0,11.0,39,0.00,,---,0.00,VWS V14.01,2013-02-05 10:37:00,
2013-02-05 03:42:00,31.3,9.2,29.29,West,277,10.1,10.1,39,0.00,,---,0.00,VWS V14.01,2013-02-05 10:42:00,
2013-02-05 03:48:00,29.8,8.5,29.32,West,276,9.6,10.1,40,0.00,,---,0.00,VWS V14.01,2013-02-05 10:48:00,
2013-02-05 03:53:00,29.1,8.4,29.32,West,273,10.1,10.1,41,0.00,,---,0.00,VWS V14.01,2013-02-05 10:53:00,
2013-02-05 03:59:00,28.6,7.9,29.32,West,276,9.2,9.2,41,0.00,,---,0.00,VWS V14.01,2013-02-05 10:59:00,
2013-02-05 04:04:00,28.0,7.4,29.32,WNW,289,8.7,8.7,41,0.00,,---,0.00,VWS V14.01,2013-02-05 11:04:00,
2013-02-05 04:10:00,27.7,7.6,29.32,West,273,9.2,9.2,42,0.00,,---,0.00,VWS V14.01,2013-02-05 11:10:00,
2013-02-05 04:16:00,27.7,7.6,29.32,West,277,10.1,10.1,42,0.00,,---,0.00,VWS V14.01,2013-02-05 11:16:00,
2013-02-05 04:21:00,27.7,8.1,29.32,West,272,11.0,11.0,43,0.00,,---,0.00,VWS V14.01,2013-02-05 11:21:00,
2013-02-05 04:26:00,27.9,8.3,29.32,West,271,8.3,10.5,43,0.00,,---,0.00,VWS V14.01,2013-02-05 11:26:00,
2013-02-05 04:31:00,27.9,8.8,29.32,West,267,8.1,8.1,44,0.00,,---,0.00,VWS V14.01,2013-02-05 11:31:00,
2013-02-05 04:37:00,27.9,8.8,29.32,West,269,10.1,10.1,44,0.00,,---,0.00,VWS V14.01,2013-02-05 11:37:00,
2013-02-05 04:42:00,27.9,8.8,29.32,West,274,10.5,10.5,44,0.00,,---,0.00,VWS V14.01,2013-02-05 11:42:00,
2013-02-05 04:48:00,27.7,8.6,29.32,West,271,10.1,10.1,44,0.00,,---,0.00,VWS V14.01,2013-02-05 11:48:00,
2013-02-05 04:53:00,27.7,9.1,29.32,West,276,10.5,10.5,45,0.00,,---,0.00,VWS V14.01,2013-02-05 11:53:00,
2013-02-05 04:58:00,27.7,9.1,29.32,WNW,290,10.1,11.0,45,0.00,,---,0.00,VWS V14.01,2013-02-05 11:58:00,
2013-02-05 05:03:00,27.3,8.8,29.32,West,272,11.0,12.3,45,0.00,,---,0.00,VWS V14.01,2013-02-05 12:03:00,
2013-02-05 05:09:00,27.1,9.1,29.32,West,279,10.1,10.1,46,0.00,,---,0.00,VWS V14.01,2013-02-05 12:09:00,
2013-02-05 05:15:00,27.1,9.1,29.32,West,276,9.6,11.4,46,0.00,,---,0.00,VWS V14.01,2013-02-05 12:15:00,
2013-02-05 05:20:00,27.0,8.9,29.32,WNW,283,10.5,10.5,46,0.00,,---,0.00,VWS V14.01,2013-02-05 12:20:00,
2013-02-05 05:26:00,26.6,9.1,29.32,WNW,284,11.0,11.0,47,0.00,,---,0.00,VWS V14.01,2013-02-05 12:26:00,
2013-02-05 05:31:00,26.6,9.1,29.32,West,269,10.1,10.1,47,0.00,,---,0.00,VWS V14.01,2013-02-05 12:31:00,
2013-02-05 05:37:00,26.4,8.9,29.32,West,274,10.1,10.1,47,0.00,,---,0.00,VWS V14.01,2013-02-05 12:37:00,
2013-02-05 05:42:00,26.4,9.4,29.35,West,281,8.3,10.5,48,0.00,,---,0.00,VWS V14.01,2013-02-05 12:42:00,
2013-02-05 05:48:00,26.2,9.2,29.35,WNW,291,8.3,8.7,48,0.00,,---,0.00,VWS V14.01,2013-02-05 12:48:00,
2013-02-05 05:54:00,26.2,9.2,29.35,WNW,290,8.3,8.7,48,0.00,,---,0.00,VWS V14.01,2013-02-05 12:54:00,
2013-02-05 06:00:00,26.8,10.2,29.35,WNW,285,8.3,8.3,49,0.00,,---,0.00,VWS V14.01,2013-02-05 13:00:00,
2013-02-05 06:06:00,26.8,10.2,29.35,WNW,288,8.1,8.1,49,0.00,,---,0.00,VWS V14.01,2013-02-05 13:06:00,
2013-02-05 06:12:00,27.0,10.4,29.35,WNW,291,10.5,10.5,49,0.00,,---,0.00,VWS V14.01,2013-02-05 13:12:00,
2013-02-05 06:17:00,27.3,10.7,29.35,WNW,295,10.1,11.4,49,0.00,,---,0.00,VWS V14.01,2013-02-05 13:17:00,
2013-02-05 06:23:00,27.9,11.6,29.35,WNW,285,8.7,11.0,50,0.00,,---,0.00,VWS V14.01,2013-02-05 13:23:00,
2013-02-05 06:29:00,28.2,12.0,29.35,WNW,292,8.7,11.9,50,0.00,,---,0.00,VWS V14.01,2013-02-05 13:29:00,
2013-02-05 06:34:00,28.2,11.5,29.35,WNW,298,10.5,10.5,49,0.00,,---,0.00,VWS V14.01,2013-02-05 13:34:00,
2013-02-05 06:39:00,28.0,11.4,29.35,WNW,286,8.3,8.3,49,0.00,,---,0.00,VWS V14.01,2013-02-05 13:39:00,
2013-02-05 06:45:00,28.0,11.4,29.35,WNW,295,11.0,11.0,49,0.00,,---,0.00,VWS V14.01,2013-02-05 13:45:00,
2013-02-05 06:51:00,27.9,11.2,29.35,WNW,291,12.3,12.3,49,0.00,,---,0.00,VWS V14.01,2013-02-05 13:51:00,
2013-02-05 06:56:00,27.9,11.2,29.35,West,278,11.9,11.9,49,0.00,,---,0.00,VWS V14.01,2013-02-05 13:56:00,
2013-02-05 07:02:00,27.7,11.0,29.35,West,277,10.5,12.8,49,0.00,,---,0.00,VWS V14.01,2013-02-05 14:02:00,
2013-02-05 07:07:00,27.5,10.9,29.35,WNW,282,10.5,10.5,49,0.00,,---,0.00,VWS V14.01,2013-02-05 14:07:00,
2013-02-05 07:12:00,27.3,10.7,29.38,WNW,283,7.6,11.0,49,0.00,,---,0.00,VWS V14.01,2013-02-05 14:12:00,
2013-02-05 07:17:00,27.3,10.7,29.38,WNW,284,10.5,10.5,49,0.00,,---,0.00,VWS V14.01,2013-02-05 14:17:00,
2013-02-05 07:23:00,27.7,11.5,29.38,WNW,292,10.5,10.5,50,0.00,,---,0.00,VWS V14.01,2013-02-05 14:23:00,
2013-02-05 07:29:00,27.9,11.6,29.38,WNW,295,11.9,11.9,50,0.00,,---,0.00,VWS V14.01,2013-02-05 14:29:00,
2013-02-05 07:35:00,28.2,12.0,29.38,WNW,292,10.1,10.1,50,0.00,,---,0.00,VWS V14.01,2013-02-05 14:35:00,
2013-02-05 07:41:00,28.4,12.1,29.38,WNW,290,7.6,7.6,50,0.00,,---,0.00,VWS V14.01,2013-02-05 14:41:00,
2013-02-05 07:47:00,28.9,12.2,29.38,WNW,284,7.6,7.6,49,0.00,,---,0.00,VWS V14.01,2013-02-05 14:47:00,
2013-02-05 07:52:00,29.1,12.4,29.38,WNW,297,9.6,9.6,49,0.00,,---,0.00,VWS V14.01,2013-02-05 14:52:00,
2013-02-05 07:57:00,29.7,13.3,29.38,WNW,300,8.7,10.1,50,0.00,,---,0.00,VWS V14.01,2013-02-05 14:57:00,
2013-02-05 08:02:00,30.2,13.8,29.41,WNW,292,8.7,8.7,50,0.00,,---,0.00,VWS V14.01,2013-02-05 15:02:00,
2013-02-05 08:08:00,30.7,14.3,29.41,WNW,292,8.3,8.3,50,0.00,,---,0.00,VWS V14.01,2013-02-05 15:08:00,
2013-02-05 08:13:00,32.2,15.2,29.41,WNW,293,10.5,10.5,49,0.00,,---,0.00,VWS V14.01,2013-02-05 15:13:00,
2013-02-05 08:19:00,32.9,15.4,29.41,West,281,6.3,6.3,48,0.00,,---,0.00,VWS V14.01,2013-02-05 15:19:00,
2013-02-05 08:24:00,33.3,14.7,29.41,West,281,7.6,7.6,46,0.00,,---,0.00,VWS V14.01,2013-02-05 15:24:00,
2013-02-05 08:30:00,33.6,15.1,29.41,West,277,8.1,11.0,46,0.00,,---,0.00,VWS V14.01,2013-02-05 15:30:00,
2013-02-05 08:35:00,34.0,14.9,29.41,WNW,282,8.3,8.3,45,0.00,,---,0.00,VWS V14.01,2013-02-05 15:35:00,
2013-02-05 08:41:00,34.5,14.9,29.44,West,267,7.6,10.5,44,0.00,,---,0.00,VWS V14.01,2013-02-05 15:41:00,
2013-02-05 08:47:00,35.1,15.4,29.44,West,262,8.1,8.1,44,0.00,,---,0.00,VWS V14.01,2013-02-05 15:47:00,
2013-02-05 08:52:00,35.8,15.5,29.44,WSW,244,11.0,11.0,43,0.00,,---,0.00,VWS V14.01,2013-02-05 15:52:00,
2013-02-05 08:58:00,36.5,15.6,29.44,West,271,7.6,11.0,42,0.00,,---,0.00,VWS V14.01,2013-02-05 15:58:00,
2013-02-05 09:04:00,37.0,15.5,29.44,West,274,10.5,10.5,41,0.00,,---,0.00,VWS V14.01,2013-02-05 16:04:00,
2013-02-05 14:06:00,52.3,15.7,29.41,SSW,195,8.7,8.7,23,0.00,,---,0.00,VWS V14.01,2013-02-05 21:06:00,
2013-02-05 14:12:00,52.5,15.8,29.41,SSW,211,5.8,10.5,23,0.00,,---,0.00,VWS V14.01,2013-02-05 21:12:00,
2013-02-05 14:17:00,52.5,13.7,29.41,SSW,211,5.8,5.8,21,0.00,,---,0.00,VWS V14.01,2013-02-05 21:17:00,
2013-02-05 14:23:00,52.3,15.7,29.41,SSW,197,7.6,8.1,23,0.00,,---,0.00,VWS V14.01,2013-02-05 21:23:00,
2013-02-05 14:28:00,52.5,15.8,29.41,West,260,8.1,8.1,23,0.00,,---,0.00,VWS V14.01,2013-02-05 21:28:00,
2013-02-05 14:34:00,52.5,15.8,29.41,SSW,198,6.3,6.3,23,0.00,,---,0.00,VWS V14.01,2013-02-05 21:34:00,
2013-02-05 14:39:00,52.5,15.8,29.41,SE,140,8.1,8.1,23,0.00,,---,0.00,VWS V14.01,2013-02-05 21:39:00,
2013-02-05 14:44:00,52.5,15.8,29.38,SSE,165,8.7,8.7,23,0.00,,---,0.00,VWS V14.01,2013-02-05 21:44:00,
2013-02-05 14:50:00,52.5,15.8,29.38,SSE,167,8.3,8.3,23,0.00,,---,0.00,VWS V14.01,2013-02-05 21:50:00,
2013-02-05 14:55:00,52.5,15.8,29.38,South,172,5.4,5.4,23,0.00,,---,0.00,VWS V14.01,2013-02-05 21:55:00,
2013-02-05 15:01:00,52.5,15.8,29.38,SSE,158,6.7,6.7,23,0.00,,---,0.00,VWS V14.01,2013-02-05 22:01:00,
2013-02-05 15:06:00,52.5,15.8,29.38,SSE,158,6.7,6.7,23,0.00,,---,0.00,VWS V14.01,2013-02-05 22:06:00,
2013-02-05 15:11:00,52.5,15.8,29.38,South,186,11.0,11.0,23,0.00,,---,0.00,VWS V14.01,2013-02-05 22:11:00,
2013-02-05 15:16:00,52.3,15.7,29.38,SSE,154,12.3,12.3,23,0.00,,---,0.00,VWS V14.01,2013-02-05 22:16:00,
2013-02-05 15:22:00,52.2,13.4,29.38,SSE,160,6.7,6.7,21,0.00,,---,0.00,VWS V14.01,2013-02-05 22:22:00,
2013-02-05 15:27:00,52.2,15.5,29.38,SE,139,6.3,6.3,23,0.00,,---,0.00,VWS V14.01,2013-02-05 22:27:00,
2013-02-05 15:33:00,52.2,15.5,29.38,South,171,5.8,7.6,23,0.00,,---,0.00,VWS V14.01,2013-02-05 22:33:00,
2013-02-05 15:38:00,52.0,15.4,29.38,SSW,206,8.7,8.7,23,0.00,,---,0.00,VWS V14.01,2013-02-05 22:38:00,
2013-02-05 15:44:00,52.0,15.4,29.38,SSE,159,10.5,10.5,23,0.00,,---,0.00,VWS V14.01,2013-02-05 22:44:00,
2013-02-05 15:50:00,51.8,13.1,29.38,South,171,10.1,10.5,21,0.00,,---,0.00,VWS V14.01,2013-02-05 22:50:00,
2013-02-05 15:55:00,51.6,16.0,29.38,SE,144,8.1,8.7,24,0.00,,---,0.00,VWS V14.01,2013-02-05 22:55:00,
2013-02-05 16:01:00,51.3,12.7,29.38,SSE,167,5.8,5.8,21,0.00,,---,0.00,VWS V14.01,2013-02-05 23:01:00,
2013-02-05 16:07:00,50.7,12.2,29.38,SSE,152,8.3,8.3,21,0.00,,---,0.00,VWS V14.01,2013-02-05 23:07:00,
2013-02-05 16:12:00,50.2,11.8,29.38,SSE,157,11.0,11.0,21,0.00,,---,0.00,VWS V14.01,2013-02-05 23:12:00,
2013-02-05 16:17:00,49.8,11.5,29.38,SSE,164,8.7,11.0,21,0.00,,---,0.00,VWS V14.01,2013-02-05 23:17:00,
2013-02-05 16:22:00,49.6,11.3,29.38,SSE,158,8.7,8.7,21,0.00,,---,0.00,VWS V14.01,2013-02-05 23:22:00,
2013-02-05 16:27:00,49.1,10.9,29.38,SSE,150,7.6,7.6,21,0.00,,---,0.00,VWS V14.01,2013-02-05 23:27:00,
2013-02-05 16:33:00,48.6,10.4,29.38,SSE,151,9.6,9.6,21,0.00,,---,0.00,VWS V14.01,2013-02-05 23:33:00,
2013-02-05 16:38:00,48.2,10.1,29.38,SSE,152,9.2,9.2,21,0.00,,---,0.00,VWS V14.01,2013-02-05 23:38:00,
2013-02-05 16:43:00,47.3,10.4,29.38,SSE,153,8.3,8.3,22,0.00,,---,0.00,VWS V14.01,2013-02-05 23:43:00,
2013-02-05 16:49:00,46.2,9.5,29.38,SSE,154,7.6,7.6,22,0.00,,---,0.00,VWS V14.01,2013-02-05 23:49:00,
2013-02-05 16:55:00,45.9,9.2,29.38,SSE,149,6.7,6.7,22,0.00,,---,0.00,VWS V14.01,2013-02-05 23:55:00,
2013-02-05 17:00:00,45.0,8.4,29.38,SSE,147,7.6,7.6,22,0.00,,---,0.00,VWS V14.01,2013-02-06 00:00:00,
2013-02-05 17:06:00,44.6,8.1,29.38,SE,146,6.3,6.3,22,0.00,,---,0.00,VWS V14.01,2013-02-06 00:06:00,
2013-02-05 17:11:00,43.9,8.5,29.38,SE,146,6.3,6.3,23,0.00,,---,0.00,VWS V14.01,2013-02-06 00:11:00,
2013-02-05 17:17:00,43.3,8.0,29.38,SE,131,7.6,7.6,23,0.00,,---,0.00,VWS V14.01,2013-02-06 00:17:00,
2013-02-05 17:22:00,43.3,8.0,29.38,SE,142,7.2,7.2,23,0.00,,---,0.00,VWS V14.01,2013-02-06 00:22:00,
2013-02-05 17:28:00,42.1,7.0,29.38,SE,137,5.8,5.8,23,0.00,,---,0.00,VWS V14.01,2013-02-06 00:28:00,
2013-02-05 17:33:00,41.9,9.5,29.35,SE,127,7.2,7.2,26,0.00,,---,0.00,VWS V14.01,2013-02-06 00:33:00,
2013-02-05 17:39:00,41.7,9.4,29.35,SE,145,7.2,7.2,26,0.00,,---,0.00,VWS V14.01,2013-02-06 00:39:00,
2013-02-05 17:44:00,41.9,9.5,29.35,SE,134,8.1,8.3,26,0.00,,---,0.00,VWS V14.01,2013-02-06 00:44:00,
2013-02-05 17:50:00,42.1,9.7,29.35,SE,130,10.1,10.5,26,0.00,,---,0.00,VWS V14.01,2013-02-06 00:50:00,
2013-02-05 17:56:00,42.1,11.3,29.35,ESE,122,10.1,10.1,28,0.00,,---,0.00,VWS V14.01,2013-02-06 00:56:00,
2013-02-05 18:01:00,41.9,11.2,29.35,ESE,123,11.0,11.0,28,0.00,,---,0.00,VWS V14.01,2013-02-06 01:01:00,
2013-02-05 18:07:00,41.5,10.9,29.35,SE,127,12.3,12.3,28,0.00,,---,0.00,VWS V14.01,2013-02-06 01:07:00,
2013-02-05 18:12:00,41.4,10.7,29.35,SE,128,11.9,11.9,28,0.00,,---,0.00,VWS V14.01,2013-02-06 01:12:00,
2013-02-05 18:18:00,41.2,10.6,29.35,ESE,123,11.0,12.3,28,0.00,,---,0.00,VWS V14.01,2013-02-06 01:18:00,
2013-02-05 18:23:00,41.0,10.4,29.35,SE,124,12.3,12.3,28,0.00,,---,0.00,VWS V14.01,2013-02-06 01:23:00,
2013-02-05 18:28:00,40.6,10.9,29.35,ESE,123,11.0,12.3,29,0.00,,---,0.00,VWS V14.01,2013-02-06 01:28:00,
2013-02-05 18:34:00,40.5,10.7,29.35,SE,125,11.9,11.9,29,0.00,,---,0.00,VWS V14.01,2013-02-06 01:34:00,
2013-02-05 18:39:00,40.6,10.9,29.35,SE,128,12.8,13.2,29,0.00,,---,0.00,VWS V14.01,2013-02-06 01:39:00,
2013-02-05 18:45:00,40.6,10.9,29.35,SE,128,12.8,12.8,29,0.00,,---,0.00,VWS V14.01,2013-02-06 01:45:00,
2013-02-05 18:51:00,41.4,11.5,29.35,SE,132,12.3,13.2,29,0.00,,---,0.00,VWS V14.01,2013-02-06 01:51:00,
2013-02-05 18:57:00,42.3,12.3,29.35,SE,133,13.2,13.2,29,0.00,,---,0.00,VWS V14.01,2013-02-06 01:57:00,
2013-02-05 19:03:00,43.2,13.1,29.35,SE,133,11.0,11.0,29,0.00,,---,0.00,VWS V14.01,2013-02-06 02:03:00,
2013-02-05 19:09:00,43.5,13.4,29.35,SE,131,10.1,11.9,29,0.00,,---,0.00,VWS V14.01,2013-02-06 02:09:00,
2013-02-05 19:14:00,43.5,13.4,29.32,SE,130,11.0,11.0,29,0.00,,---,0.00,VWS V14.01,2013-02-06 02:14:00,
2013-02-05 19:19:00,43.5,13.4,29.32,SE,141,14.1,15.4,29,0.00,,---,0.00,VWS V14.01,2013-02-06 02:19:00,
2013-02-05 19:24:00,43.5,13.4,29.32,SE,129,13.6,13.6,29,0.00,,---,0.00,VWS V14.01,2013-02-06 02:24:00,
2013-02-05 19:30:00,43.3,13.2,29.32,SE,130,15.0,16.8,29,0.00,,---,0.00,VWS V14.01,2013-02-06 02:30:00,
2013-02-05 19:35:00,43.3,13.2,29.32,SE,129,14.1,16.3,29,0.00,,---,0.00,VWS V14.01,2013-02-06 02:35:00,
2013-02-05 19:41:00,43.3,13.2,29.32,SE,135,15.9,17.4,29,0.00,,---,0.00,VWS V14.01,2013-02-06 02:41:00,
2013-02-05 19:46:00,43.3,13.2,29.32,SE,131,18.3,18.3,29,0.00,,---,0.00,VWS V14.01,2013-02-06 02:46:00,
2013-02-05 19:52:00,43.3,13.2,29.32,SE,140,16.3,16.3,29,0.00,,---,0.00,VWS V14.01,2013-02-06 02:52:00,
2013-02-05 19:57:00,43.0,12.9,29.32,SE,132,16.3,16.3,29,0.00,,---,0.00,VWS V14.01,2013-02-06 02:57:00,
2013-02-05 20:03:00,42.8,12.8,29.32,SE,131,15.9,15.9,29,0.00,,---,0.00,VWS V14.01,2013-02-06 03:03:00,
2013-02-05 20:08:00,42.4,12.4,29.32,SE,136,12.8,15.0,29,0.00,,---,0.00,VWS V14.01,2013-02-06 03:08:00,
2013-02-05 20:13:00,42.1,12.1,29.32,SE,134,13.2,13.2,29,0.00,,---,0.00,VWS V14.01,2013-02-06 03:13:00,
2013-02-05 20:19:00,41.7,11.8,29.32,SE,135,15.4,15.4,29,0.00,,---,0.00,VWS V14.01,2013-02-06 03:19:00,
2013-02-05 20:24:00,41.5,11.7,29.32,SE,132,17.4,17.4,29,0.00,,---,0.00,VWS V14.01,2013-02-06 03:24:00,
2013-02-05 20:30:00,41.2,11.4,29.32,SE,140,15.4,15.4,29,0.00,,---,0.00,VWS V14.01,2013-02-06 03:30:00,
2013-02-05 20:35:00,41.2,11.4,29.32,SE,137,15.4,15.9,29,0.00,,---,0.00,VWS V14.01,2013-02-06 03:35:00,
2013-02-05 20:41:00,41.0,11.2,29.32,SE,142,15.4,15.4,29,0.00,,---,0.00,VWS V14.01,2013-02-06 03:41:00,
2013-02-05 20:47:00,41.0,11.2,29.32,SE,140,15.0,16.3,29,0.00,,---,0.00,VWS V14.01,2013-02-06 03:47:00,
2013-02-05 20:52:00,41.0,11.2,29.32,SSE,149,15.0,15.0,29,0.00,,---,0.00,VWS V14.01,2013-02-06 03:52:00,
2013-02-05 20:58:00,40.5,11.5,29.32,SE,136,16.8,16.8,30,0.00,,---,0.00,VWS V14.01,2013-02-06 03:58:00,
2013-02-05 21:04:00,40.3,11.3,29.32,SE,139,15.9,15.9,30,0.00,,---,0.00,VWS V14.01,2013-02-06 04:04:00,
2013-02-05 21:09:00,39.9,11.0,29.32,SE,139,14.5,14.5,30,0.00,,---,0.00,VWS V14.01,2013-02-06 04:09:00,
2013-02-05 21:15:00,39.7,10.9,29.32,SE,141,12.8,15.4,30,0.00,,---,0.00,VWS V14.01,2013-02-06 04:15:00,
2013-02-05 21:20:00,39.7,10.9,29.29,SE,139,16.8,16.8,30,0.00,,---,0.00,VWS V14.01,2013-02-06 04:20:00,
2013-02-05 21:26:00,39.4,10.5,29.29,SE,143,15.9,15.9,30,0.00,,---,0.00,VWS V14.01,2013-02-06 04:26:00,
2013-02-05 21:31:00,39.2,10.4,29.32,SE,135,14.1,15.4,30,0.00,,---,0.00,VWS V14.01,2013-02-06 04:31:00,
2013-02-05 21:37:00,38.8,10.8,29.32,SE,141,15.0,15.0,31,0.00,,---,0.00,VWS V14.01,2013-02-06 04:37:00,
2013-02-05 21:42:00,38.8,10.8,29.32,SE,141,15.0,15.0,31,0.00,,---,0.00,VWS V14.01,2013-02-06 04:42:00,
2013-02-05 21:47:00,38.8,10.8,29.29,SE,138,13.2,14.5,31,0.00,,---,0.00,VWS V14.01,2013-02-06 04:47:00,
2013-02-05 21:53:00,38.7,11.4,29.29,SSE,149,13.2,13.2,32,0.00,,---,0.00,VWS V14.01,2013-02-06 04:53:00,
2013-02-05 21:58:00,38.5,11.2,29.29,SSE,156,11.4,11.4,32,0.00,,---,0.00,VWS V14.01,2013-02-06 04:58:00,
2013-02-05 22:00:00,38.5,11.2,29.29,SSE,149,15.0,15.0,32,0.00,,---,0.00,VWS V14.01,2013-02-06 05:00:00,
2013-02-05 22:02:00,38.3,11.0,29.29,SE,145,13.6,13.6,32,0.00,,---,0.00,VWS V14.01,2013-02-06 05:02:00,
2013-02-05 22:07:00,37.9,10.7,29.29,SSE,151,13.2,13.2,32,0.00,,---,0.00,VWS V14.01,2013-02-06 05:07:00,
2013-02-05 22:11:00,37.6,10.4,29.29,SSE,156,10.5,14.5,32,0.00,,---,0.00,VWS V14.01,2013-02-06 05:11:00,
2013-02-05 22:16:00,37.4,10.2,29.29,SSE,147,11.0,11.0,32,0.00,,---,0.00,VWS V14.01,2013-02-06 05:16:00,
2013-02-05 22:22:00,36.9,9.8,29.29,SSE,147,10.5,10.5,32,0.00,,---,0.00,VWS V14.01,2013-02-06 05:22:00,
2013-02-05 22:28:00,36.7,9.6,29.29,SSE,147,10.1,10.1,32,0.00,,---,0.00,VWS V14.01,2013-02-06 05:28:00,
2013-02-05 22:33:00,36.1,9.1,29.29,SSE,149,10.5,10.5,32,0.00,,---,0.00,VWS V14.01,2013-02-06 05:33:00,
2013-02-05 22:39:00,35.8,8.8,29.29,SE,144,12.8,12.8,32,0.00,,---,0.00,VWS V14.01,2013-02-06 05:39:00,
2013-02-05 22:44:00,35.4,9.2,29.29,SSE,154,10.5,10.5,33,0.00,,---,0.00,VWS V14.01,2013-02-06 05:44:00,
2013-02-05 22:50:00,35.1,8.9,29.29,SSE,153,11.0,11.0,33,0.00,,---,0.00,VWS V14.01,2013-02-06 05:50:00,
2013-02-05 22:55:00,34.9,8.7,29.29,SSE,152,10.1,11.0,33,0.00,,---,0.00,VWS V14.01,2013-02-06 05:55:00,
2013-02-05 23:00:00,34.5,9.1,29.29,SSE,159,10.1,11.0,34,0.00,,---,0.00,VWS V14.01,2013-02-06 06:00:00,
2013-02-05 23:05:00,34.3,8.9,29.29,SSE,151,11.0,11.0,34,0.00,,---,0.00,VWS V14.01,2013-02-06 06:05:00,
2013-02-05 23:11:00,34.0,9.2,29.29,SSE,162,8.1,8.1,35,0.00,,---,0.00,VWS V14.01,2013-02-06 06:11:00,
2013-02-05 23:16:00,34.0,9.2,29.29,SE,146,11.4,11.4,35,0.00,,---,0.00,VWS V14.01,2013-02-06 06:16:00,
2013-02-05 23:22:00,33.8,9.1,29.29,SSE,147,11.0,12.8,35,0.00,,---,0.00,VWS V14.01,2013-02-06 06:22:00,
2013-02-05 23:28:00,33.6,10.1,29.29,SSE,151,11.9,11.9,37,0.00,,---,0.00,VWS V14.01,2013-02-06 06:28:00,
2013-02-05 23:33:00,33.6,10.1,29.29,SSE,159,10.5,11.0,37,0.00,,---,0.00,VWS V14.01,2013-02-06 06:33:00,
2013-02-05 23:38:00,33.8,10.3,29.29,SSE,151,10.1,10.1,37,0.00,,---,0.00,VWS V14.01,2013-02-06 06:38:00,
2013-02-05 23:43:00,33.6,10.7,29.29,SE,144,11.0,11.0,38,0.00,,---,0.00,VWS V14.01,2013-02-06 06:43:00,
2013-02-05 23:49:00,33.8,11.5,29.29,SSE,153,11.0,11.0,39,0.00,,---,0.00,VWS V14.01,2013-02-06 06:49:00,
2013-02-05 23:54:00,33.6,11.3,29.29,SSE,147,11.0,11.0,39,0.00,,---,0.00,VWS V14.01,2013-02-06 06:54:00,
2013-02-05 23:59:00,33.6,11.3,29.29,SSE,150,13.2,13.2,39,0.00,,---,0.00,VWS V14.01,2013-02-06 06:59:00,